sensor_id;sensor_type;location;lat;lon;timestamp;P1;durP1;ratioP1;P2;durP2;ratioP2
68234;SDS011;55052;52.056;5.296;2022-09-09T00:03:40;6.60;;;2.00;;
68234;SDS011;55052;52.056;5.296;2022-09-09T00:06:14;4.05;;;1.95;;
68234;SDS011;55052;52.056;5.296;2022-09-09T00:09:08;3.80;;;2.00;;
68234;SDS011;55052;52.056;5.296;2022-09-09T00:14:35;3.28;;;1.90;;
68234;SDS011;55052;52.056;5.296;2022-09-09T00:17:14;5.32;;;2.40;;
68234;SDS011;55052;52.056;5.296;2022-09-09T00:20:03;3.38;;;1.90;;
68234;SDS011;55052;52.056;5.296;2022-09-09T00:22:40;6.45;;;2.13;;
68234;SDS011;55052;52.056;5.296;2022-09-09T00:25:19;4.15;;;2.10;;
68234;SDS011;55052;52.056;5.296;2022-09-09T00:27:56;3.30;;;2.20;;
68234;SDS011;55052;52.056;5.296;2022-09-09T00:30:31;4.40;;;2.08;;
68234;SDS011;55052;52.056;5.296;2022-09-09T00:33:03;3.35;;;1.85;;
68234;SDS011;55052;52.056;5.296;2022-09-09T00:35:40;4.00;;;2.05;;
68234;SDS011;55052;52.056;5.296;2022-09-09T00:40:48;4.45;;;2.00;;
68234;SDS011;55052;52.056;5.296;2022-09-09T00:43:29;3.90;;;2.40;;
68234;SDS011;55052;52.056;5.296;2022-09-09T00:54:20;5.85;;;2.60;;
68234;SDS011;55052;52.056;5.296;2022-09-09T00:59:47;5.50;;;2.42;;
68234;SDS011;55052;52.056;5.296;2022-09-09T01:02:26;5.93;;;2.53;;
68234;SDS011;55052;52.056;5.296;2022-09-09T01:07:53;7.18;;;2.40;;
68234;SDS011;55052;52.056;5.296;2022-09-09T01:13:02;6.03;;;2.67;;
68234;SDS011;55052;52.056;5.296;2022-09-09T01:15:37;5.22;;;2.35;;
68234;SDS011;55052;52.056;5.296;2022-09-09T01:18:10;4.90;;;2.50;;
68234;SDS011;55052;52.056;5.296;2022-09-09T01:23:22;4.20;;;2.10;;
68234;SDS011;55052;52.056;5.296;2022-09-09T01:26:17;7.00;;;2.47;;
68234;SDS011;55052;52.056;5.296;2022-09-09T01:28:45;6.63;;;2.50;;
68234;SDS011;55052;52.056;5.296;2022-09-09T01:31:19;4.93;;;2.60;;
68234;SDS011;55052;52.056;5.296;2022-09-09T01:33:48;6.03;;;2.60;;
68234;SDS011;55052;52.056;5.296;2022-09-09T01:39:05;7.32;;;2.60;;
68234;SDS011;55052;52.056;5.296;2022-09-09T01:41:31;4.88;;;2.40;;
68234;SDS011;55052;52.056;5.296;2022-09-09T01:43:58;3.97;;;2.17;;
68234;SDS011;55052;52.056;5.296;2022-09-09T01:46:25;4.95;;;2.47;;
68234;SDS011;55052;52.056;5.296;2022-09-09T01:48:53;6.50;;;2.70;;
68234;SDS011;55052;52.056;5.296;2022-09-09T01:51:21;5.28;;;2.60;;
68234;SDS011;55052;52.056;5.296;2022-09-09T01:53:48;5.72;;;2.50;;
68234;SDS011;55052;52.056;5.296;2022-09-09T01:59:10;4.80;;;2.63;;
68234;SDS011;55052;52.056;5.296;2022-09-09T02:02:04;5.57;;;2.85;;
68234;SDS011;55052;52.056;5.296;2022-09-09T02:13:27;5.90;;;2.80;;
68234;SDS011;55052;52.056;5.296;2022-09-09T02:16:00;5.50;;;2.95;;
68234;SDS011;55052;52.056;5.296;2022-09-09T02:18:58;6.65;;;2.60;;
68234;SDS011;55052;52.056;5.296;2022-09-09T02:21:33;7.05;;;3.00;;
68234;SDS011;55052;52.056;5.296;2022-09-09T02:24:02;7.15;;;2.63;;
68234;SDS011;55052;52.056;5.296;2022-09-09T02:29:01;6.80;;;2.67;;
68234;SDS011;55052;52.056;5.296;2022-09-09T02:31:30;5.00;;;3.05;;
68234;SDS011;55052;52.056;5.296;2022-09-09T02:34:01;6.22;;;3.10;;
68234;SDS011;55052;52.056;5.296;2022-09-09T02:36:31;10.77;;;3.33;;
68234;SDS011;55052;52.056;5.296;2022-09-09T02:39:00;8.48;;;3.38;;
68234;SDS011;55052;52.056;5.296;2022-09-09T02:41:28;8.35;;;3.22;;
68234;SDS011;55052;52.056;5.296;2022-09-09T02:44:05;5.50;;;3.10;;
68234;SDS011;55052;52.056;5.296;2022-09-09T02:52:01;6.15;;;3.85;;
68234;SDS011;55052;52.056;5.296;2022-09-09T02:54:32;6.38;;;3.70;;
68234;SDS011;55052;52.056;5.296;2022-09-09T02:59:32;7.30;;;3.90;;
68234;SDS011;55052;52.056;5.296;2022-09-09T03:01:59;5.65;;;3.60;;
68234;SDS011;55052;52.056;5.296;2022-09-09T03:04:27;5.72;;;3.60;;
68234;SDS011;55052;52.056;5.296;2022-09-09T03:06:54;6.43;;;3.78;;
68234;SDS011;55052;52.056;5.296;2022-09-09T03:09:20;7.18;;;3.97;;
68234;SDS011;55052;52.056;5.296;2022-09-09T03:11:47;7.55;;;3.85;;
68234;SDS011;55052;52.056;5.296;2022-09-09T03:14:15;6.00;;;3.95;;
68234;SDS011;55052;52.056;5.296;2022-09-09T03:16:42;5.97;;;3.90;;
68234;SDS011;55052;52.056;5.296;2022-09-09T03:19:09;9.45;;;4.20;;
68234;SDS011;55052;52.056;5.296;2022-09-09T03:21:36;8.77;;;3.85;;
68234;SDS011;55052;52.056;5.296;2022-09-09T03:24:02;6.65;;;3.83;;
68234;SDS011;55052;52.056;5.296;2022-09-09T03:26:29;10.68;;;4.20;;
68234;SDS011;55052;52.056;5.296;2022-09-09T03:28:57;6.88;;;4.30;;
68234;SDS011;55052;52.056;5.296;2022-09-09T03:31:26;8.68;;;3.95;;
68234;SDS011;55052;52.056;5.296;2022-09-09T03:33:56;8.52;;;4.38;;
68234;SDS011;55052;52.056;5.296;2022-09-09T03:36:25;8.10;;;4.35;;
68234;SDS011;55052;52.056;5.296;2022-09-09T03:38:52;7.75;;;4.43;;
68234;SDS011;55052;52.056;5.296;2022-09-09T03:41:22;6.55;;;4.18;;
68234;SDS011;55052;52.056;5.296;2022-09-09T03:43:53;7.57;;;4.43;;
68234;SDS011;55052;52.056;5.296;2022-09-09T03:48:48;9.45;;;4.50;;
68234;SDS011;55052;52.056;5.296;2022-09-09T03:51:15;7.80;;;4.47;;
68234;SDS011;55052;52.056;5.296;2022-09-09T03:53:42;8.38;;;4.68;;
68234;SDS011;55052;52.056;5.296;2022-09-09T03:56:09;7.70;;;4.90;;
68234;SDS011;55052;52.056;5.296;2022-09-09T03:58:37;9.35;;;4.50;;
68234;SDS011;55052;52.056;5.296;2022-09-09T04:01:05;12.73;;;5.28;;
68234;SDS011;55052;52.056;5.296;2022-09-09T04:03:35;6.97;;;4.53;;
68234;SDS011;55052;52.056;5.296;2022-09-09T04:06:02;8.95;;;4.43;;
68234;SDS011;55052;52.056;5.296;2022-09-09T04:08:30;7.72;;;4.38;;
68234;SDS011;55052;52.056;5.296;2022-09-09T04:11:00;7.45;;;5.10;;
68234;SDS011;55052;52.056;5.296;2022-09-09T04:13:34;7.07;;;4.95;;
68234;SDS011;55052;52.056;5.296;2022-09-09T04:16:03;6.80;;;4.40;;
68234;SDS011;55052;52.056;5.296;2022-09-09T04:18:30;7.75;;;4.80;;
68234;SDS011;55052;52.056;5.296;2022-09-09T04:20:58;7.88;;;4.95;;
68234;SDS011;55052;52.056;5.296;2022-09-09T04:23:25;11.05;;;4.75;;
68234;SDS011;55052;52.056;5.296;2022-09-09T04:25:55;13.50;;;5.15;;
68234;SDS011;55052;52.056;5.296;2022-09-09T04:28:23;8.65;;;5.07;;
68234;SDS011;55052;52.056;5.296;2022-09-09T04:30:51;8.10;;;4.70;;
68234;SDS011;55052;52.056;5.296;2022-09-09T04:33:18;6.85;;;4.65;;
68234;SDS011;55052;52.056;5.296;2022-09-09T04:35:46;9.38;;;4.85;;
68234;SDS011;55052;52.056;5.296;2022-09-09T04:38:15;9.93;;;5.03;;
68234;SDS011;55052;52.056;5.296;2022-09-09T04:40:43;10.65;;;5.32;;
68234;SDS011;55052;52.056;5.296;2022-09-09T04:43:13;10.93;;;5.15;;
68234;SDS011;55052;52.056;5.296;2022-09-09T04:45:43;9.15;;;5.55;;
68234;SDS011;55052;52.056;5.296;2022-09-09T04:48:12;10.90;;;4.85;;
68234;SDS011;55052;52.056;5.296;2022-09-09T04:50:39;8.52;;;4.60;;
68234;SDS011;55052;52.056;5.296;2022-09-09T04:53:06;7.43;;;4.35;;
68234;SDS011;55052;52.056;5.296;2022-09-09T04:55:33;8.88;;;4.75;;
68234;SDS011;55052;52.056;5.296;2022-09-09T04:58:04;10.35;;;4.93;;
68234;SDS011;55052;52.056;5.296;2022-09-09T05:00:32;9.55;;;4.85;;
68234;SDS011;55052;52.056;5.296;2022-09-09T05:03:02;11.43;;;4.82;;
68234;SDS011;55052;52.056;5.296;2022-09-09T05:08:04;9.35;;;4.30;;
68234;SDS011;55052;52.056;5.296;2022-09-09T05:10:32;6.10;;;3.83;;
68234;SDS011;55052;52.056;5.296;2022-09-09T05:12:59;9.07;;;4.10;;
68234;SDS011;55052;52.056;5.296;2022-09-09T05:15:26;7.25;;;3.83;;
68234;SDS011;55052;52.056;5.296;2022-09-09T05:17:56;9.68;;;3.60;;
68234;SDS011;55052;52.056;5.296;2022-09-09T05:20:25;8.52;;;3.88;;
68234;SDS011;55052;52.056;5.296;2022-09-09T05:22:55;8.13;;;4.20;;
68234;SDS011;55052;52.056;5.296;2022-09-09T05:25:23;11.70;;;4.15;;
68234;SDS011;55052;52.056;5.296;2022-09-09T05:27:53;8.13;;;3.70;;
68234;SDS011;55052;52.056;5.296;2022-09-09T05:30:20;7.90;;;3.60;;
68234;SDS011;55052;52.056;5.296;2022-09-09T05:32:48;8.80;;;3.53;;
68234;SDS011;55052;52.056;5.296;2022-09-09T05:35:16;9.73;;;3.80;;
68234;SDS011;55052;52.056;5.296;2022-09-09T05:37:45;10.73;;;4.00;;
68234;SDS011;55052;52.056;5.296;2022-09-09T05:40:12;10.88;;;3.28;;
68234;SDS011;55052;52.056;5.296;2022-09-09T05:42:39;7.53;;;3.17;;
68234;SDS011;55052;52.056;5.296;2022-09-09T05:45:06;9.65;;;3.47;;
68234;SDS011;55052;52.056;5.296;2022-09-09T05:47:34;7.13;;;3.25;;
68234;SDS011;55052;52.056;5.296;2022-09-09T05:50:03;12.30;;;3.70;;
68234;SDS011;55052;52.056;5.296;2022-09-09T05:52:30;12.68;;;3.33;;
68234;SDS011;55052;52.056;5.296;2022-09-09T05:54:58;8.20;;;3.35;;
68234;SDS011;55052;52.056;5.296;2022-09-09T05:57:25;8.88;;;3.92;;
68234;SDS011;55052;52.056;5.296;2022-09-09T05:59:52;7.00;;;3.30;;
68234;SDS011;55052;52.056;5.296;2022-09-09T06:02:19;7.18;;;3.70;;
68234;SDS011;55052;52.056;5.296;2022-09-09T06:04:46;8.40;;;3.45;;
68234;SDS011;55052;52.056;5.296;2022-09-09T06:07:13;7.60;;;3.10;;
68234;SDS011;55052;52.056;5.296;2022-09-09T06:09:40;7.68;;;3.67;;
68234;SDS011;55052;52.056;5.296;2022-09-09T06:12:07;8.00;;;3.35;;
68234;SDS011;55052;52.056;5.296;2022-09-09T06:14:35;8.45;;;3.30;;
68234;SDS011;55052;52.056;5.296;2022-09-09T06:17:02;8.77;;;3.40;;
68234;SDS011;55052;52.056;5.296;2022-09-09T06:19:29;10.90;;;3.47;;
68234;SDS011;55052;52.056;5.296;2022-09-09T06:21:56;7.57;;;3.20;;
68234;SDS011;55052;52.056;5.296;2022-09-09T06:24:23;9.57;;;3.47;;
68234;SDS011;55052;52.056;5.296;2022-09-09T06:26:50;11.68;;;3.40;;
68234;SDS011;55052;52.056;5.296;2022-09-09T06:29:16;7.65;;;3.22;;
68234;SDS011;55052;52.056;5.296;2022-09-09T06:31:43;11.40;;;3.20;;
68234;SDS011;55052;52.056;5.296;2022-09-09T06:34:10;5.95;;;2.80;;
68234;SDS011;55052;52.056;5.296;2022-09-09T06:36:37;8.35;;;2.90;;
68234;SDS011;55052;52.056;5.296;2022-09-09T06:39:05;12.90;;;3.65;;
68234;SDS011;55052;52.056;5.296;2022-09-09T06:41:39;9.73;;;3.38;;
68234;SDS011;55052;52.056;5.296;2022-09-09T06:44:07;8.90;;;3.17;;
68234;SDS011;55052;52.056;5.296;2022-09-09T06:46:33;11.40;;;3.50;;
68234;SDS011;55052;52.056;5.296;2022-09-09T06:49:02;9.52;;;2.97;;
68234;SDS011;55052;52.056;5.296;2022-09-09T06:51:33;7.90;;;3.22;;
68234;SDS011;55052;52.056;5.296;2022-09-09T06:54:02;10.65;;;3.25;;
68234;SDS011;55052;52.056;5.296;2022-09-09T06:56:30;10.30;;;3.03;;
68234;SDS011;55052;52.056;5.296;2022-09-09T06:59:02;9.43;;;3.38;;
68234;SDS011;55052;52.056;5.296;2022-09-09T07:01:32;10.70;;;2.90;;
68234;SDS011;55052;52.056;5.296;2022-09-09T07:04:00;9.05;;;3.28;;
68234;SDS011;55052;52.056;5.296;2022-09-09T07:06:29;11.35;;;2.78;;
68234;SDS011;55052;52.056;5.296;2022-09-09T07:08:58;12.52;;;2.88;;
68234;SDS011;55052;52.056;5.296;2022-09-09T07:11:30;9.73;;;3.03;;
68234;SDS011;55052;52.056;5.296;2022-09-09T07:13:59;14.65;;;3.20;;
68234;SDS011;55052;52.056;5.296;2022-09-09T07:16:27;12.10;;;2.80;;
68234;SDS011;55052;52.056;5.296;2022-09-09T07:18:55;11.93;;;3.22;;
68234;SDS011;55052;52.056;5.296;2022-09-09T07:21:26;11.18;;;3.20;;
68234;SDS011;55052;52.056;5.296;2022-09-09T07:23:55;9.25;;;3.08;;
68234;SDS011;55052;52.056;5.296;2022-09-09T07:26:23;8.25;;;3.03;;
68234;SDS011;55052;52.056;5.296;2022-09-09T07:28:52;9.53;;;3.23;;
68234;SDS011;55052;52.056;5.296;2022-09-09T07:31:20;9.40;;;2.95;;
68234;SDS011;55052;52.056;5.296;2022-09-09T07:33:50;11.95;;;3.58;;
68234;SDS011;55052;52.056;5.296;2022-09-09T07:36:18;11.07;;;3.30;;
68234;SDS011;55052;52.056;5.296;2022-09-09T07:38:58;10.00;;;3.10;;
68234;SDS011;55052;52.056;5.296;2022-09-09T07:44:06;9.15;;;3.33;;
68234;SDS011;55052;52.056;5.296;2022-09-09T07:46:35;10.73;;;3.33;;
68234;SDS011;55052;52.056;5.296;2022-09-09T07:49:02;9.25;;;3.22;;
68234;SDS011;55052;52.056;5.296;2022-09-09T07:51:34;11.90;;;3.40;;
68234;SDS011;55052;52.056;5.296;2022-09-09T07:54:04;10.43;;;3.40;;
68234;SDS011;55052;52.056;5.296;2022-09-09T07:56:32;10.57;;;3.17;;
68234;SDS011;55052;52.056;5.296;2022-09-09T07:58:59;11.07;;;3.53;;
68234;SDS011;55052;52.056;5.296;2022-09-09T08:01:28;10.63;;;3.00;;
68234;SDS011;55052;52.056;5.296;2022-09-09T08:04:04;11.00;;;3.40;;
68234;SDS011;55052;52.056;5.296;2022-09-09T08:06:37;8.82;;;2.80;;
68234;SDS011;55052;52.056;5.296;2022-09-09T08:09:06;11.50;;;2.75;;
68234;SDS011;55052;52.056;5.296;2022-09-09T08:11:34;11.88;;;3.20;;
68234;SDS011;55052;52.056;5.296;2022-09-09T08:14:04;9.40;;;2.92;;
68234;SDS011;55052;52.056;5.296;2022-09-09T08:16:36;9.02;;;3.20;;
68234;SDS011;55052;52.056;5.296;2022-09-09T08:19:05;5.63;;;2.90;;
68234;SDS011;55052;52.056;5.296;2022-09-09T08:21:34;14.07;;;3.00;;
68234;SDS011;55052;52.056;5.296;2022-09-09T08:24:03;11.88;;;2.90;;
68234;SDS011;55052;52.056;5.296;2022-09-09T08:26:32;8.68;;;2.78;;
68234;SDS011;55052;52.056;5.296;2022-09-09T08:29:08;11.38;;;2.88;;
68234;SDS011;55052;52.056;5.296;2022-09-09T08:31:37;12.07;;;2.60;;
68234;SDS011;55052;52.056;5.296;2022-09-09T08:34:05;12.90;;;3.20;;
68234;SDS011;55052;52.056;5.296;2022-09-09T08:36:34;9.05;;;2.42;;
68234;SDS011;55052;52.056;5.296;2022-09-09T08:39:03;9.68;;;2.80;;
68234;SDS011;55052;52.056;5.296;2022-09-09T08:52:39;7.78;;;2.47;;
68234;SDS011;55052;52.056;5.296;2022-09-09T08:55:25;9.13;;;2.58;;
68234;SDS011;55052;52.056;5.296;2022-09-09T08:58:09;13.43;;;3.20;;
68234;SDS011;55052;52.056;5.296;2022-09-09T09:00:57;10.63;;;2.80;;
68234;SDS011;55052;52.056;5.296;2022-09-09T09:06:31;6.65;;;2.28;;
68234;SDS011;55052;52.056;5.296;2022-09-09T09:09:18;11.20;;;2.80;;
68234;SDS011;55052;52.056;5.296;2022-09-09T09:11:57;10.13;;;2.67;;
68234;SDS011;55052;52.056;5.296;2022-09-09T09:14:31;10.63;;;2.60;;
68234;SDS011;55052;52.056;5.296;2022-09-09T09:17:01;12.23;;;2.80;;
68234;SDS011;55052;52.056;5.296;2022-09-09T09:19:32;9.77;;;2.45;;
68234;SDS011;55052;52.056;5.296;2022-09-09T09:24:55;8.60;;;2.20;;
68234;SDS011;55052;52.056;5.296;2022-09-09T09:30:20;8.88;;;2.70;;
68234;SDS011;55052;52.056;5.296;2022-09-09T09:35:48;9.35;;;2.42;;
68234;SDS011;55052;52.056;5.296;2022-09-09T09:41:10;8.73;;;2.30;;
68234;SDS011;55052;52.056;5.296;2022-09-09T09:43:39;9.98;;;2.55;;
68234;SDS011;55052;52.056;5.296;2022-09-09T09:46:17;8.55;;;2.65;;
68234;SDS011;55052;52.056;5.296;2022-09-09T09:48:56;14.55;;;3.05;;
68234;SDS011;55052;52.056;5.296;2022-09-09T09:51:28;11.20;;;2.97;;
68234;SDS011;55052;52.056;5.296;2022-09-09T09:54:15;11.05;;;2.90;;
68234;SDS011;55052;52.056;5.296;2022-09-09T09:56:49;11.77;;;3.00;;
68234;SDS011;55052;52.056;5.296;2022-09-09T09:59:59;9.68;;;2.50;;
68234;SDS011;55052;52.056;5.296;2022-09-09T10:02:16;13.75;;;2.72;;
68234;SDS011;55052;52.056;5.296;2022-09-09T10:04:43;12.00;;;2.65;;
68234;SDS011;55052;52.056;5.296;2022-09-09T10:07:21;8.85;;;2.53;;
68234;SDS011;55052;52.056;5.296;2022-09-09T10:09:53;10.20;;;2.83;;
68234;SDS011;55052;52.056;5.296;2022-09-09T10:20:54;9.85;;;2.55;;
68234;SDS011;55052;52.056;5.296;2022-09-09T10:26:31;9.35;;;2.50;;
68234;SDS011;55052;52.056;5.296;2022-09-09T10:34:55;12.27;;;3.20;;
68234;SDS011;55052;52.056;5.296;2022-09-09T10:48:49;9.68;;;2.42;;
68234;SDS011;55052;52.056;5.296;2022-09-09T10:57:18;8.68;;;2.90;;
68234;SDS011;55052;52.056;5.296;2022-09-09T10:59:48;10.15;;;2.65;;
68234;SDS011;55052;52.056;5.296;2022-09-09T11:02:27;6.70;;;2.85;;
68234;SDS011;55052;52.056;5.296;2022-09-09T11:07:28;8.17;;;2.80;;
68234;SDS011;55052;52.056;5.296;2022-09-09T11:12:46;10.07;;;2.80;;
68234;SDS011;55052;52.056;5.296;2022-09-09T11:17:49;6.70;;;2.60;;
68234;SDS011;55052;52.056;5.296;2022-09-09T11:20:20;7.93;;;2.65;;
68234;SDS011;55052;52.056;5.296;2022-09-09T11:25:23;9.75;;;2.90;;
68234;SDS011;55052;52.056;5.296;2022-09-09T11:39:26;4.72;;;2.00;;
68234;SDS011;55052;52.056;5.296;2022-09-09T11:41:47;6.70;;;2.78;;
68234;SDS011;55052;52.056;5.296;2022-09-09T11:44:24;7.18;;;2.55;;
68234;SDS011;55052;52.056;5.296;2022-09-09T11:46:56;7.03;;;2.30;;
68234;SDS011;55052;52.056;5.296;2022-09-09T11:49:26;7.53;;;2.75;;
68234;SDS011;55052;52.056;5.296;2022-09-09T11:52:23;9.48;;;2.83;;
68234;SDS011;55052;52.056;5.296;2022-09-09T11:55:10;8.02;;;2.85;;
68234;SDS011;55052;52.056;5.296;2022-09-09T11:57:59;7.88;;;2.90;;
68234;SDS011;55052;52.056;5.296;2022-09-09T12:00:37;8.85;;;2.63;;
68234;SDS011;55052;52.056;5.296;2022-09-09T12:03:31;8.93;;;2.60;;
68234;SDS011;55052;52.056;5.296;2022-09-09T12:06:13;11.55;;;3.25;;
68234;SDS011;55052;52.056;5.296;2022-09-09T12:08:46;8.20;;;2.63;;
68234;SDS011;55052;52.056;5.296;2022-09-09T12:11:26;7.22;;;2.50;;
68234;SDS011;55052;52.056;5.296;2022-09-09T12:13:55;7.35;;;2.42;;
68234;SDS011;55052;52.056;5.296;2022-09-09T12:16:28;8.90;;;2.67;;
68234;SDS011;55052;52.056;5.296;2022-09-09T12:22:04;6.93;;;2.95;;
68234;SDS011;55052;52.056;5.296;2022-09-09T12:27:25;7.43;;;2.70;;
68234;SDS011;55052;52.056;5.296;2022-09-09T12:32:33;7.18;;;2.75;;
68234;SDS011;55052;52.056;5.296;2022-09-09T12:40:27;8.98;;;2.80;;
68234;SDS011;55052;52.056;5.296;2022-09-09T12:42:55;8.40;;;2.90;;
68234;SDS011;55052;52.056;5.296;2022-09-09T12:45:23;8.13;;;2.75;;
68234;SDS011;55052;52.056;5.296;2022-09-09T12:53:07;6.18;;;2.58;;
68234;SDS011;55052;52.056;5.296;2022-09-09T12:56:01;8.73;;;2.40;;
68234;SDS011;55052;52.056;5.296;2022-09-09T12:58:31;7.45;;;2.90;;
68234;SDS011;55052;52.056;5.296;2022-09-09T13:01:01;9.70;;;2.70;;
68234;SDS011;55052;52.056;5.296;2022-09-09T13:03:33;8.10;;;2.75;;
68234;SDS011;55052;52.056;5.296;2022-09-09T13:06:13;9.90;;;2.60;;
68234;SDS011;55052;52.056;5.296;2022-09-09T13:08:55;8.30;;;2.50;;
68234;SDS011;55052;52.056;5.296;2022-09-09T13:11:25;10.25;;;3.22;;
68234;SDS011;55052;52.056;5.296;2022-09-09T13:13:57;9.82;;;2.50;;
68234;SDS011;55052;52.056;5.296;2022-09-09T13:16:26;6.82;;;2.90;;
68234;SDS011;55052;52.056;5.296;2022-09-09T13:19:00;9.27;;;2.83;;
68234;SDS011;55052;52.056;5.296;2022-09-09T13:21:33;7.47;;;2.67;;
68234;SDS011;55052;52.056;5.296;2022-09-09T13:24:00;6.72;;;2.72;;
68234;SDS011;55052;52.056;5.296;2022-09-09T13:26:29;8.90;;;2.80;;
68234;SDS011;55052;52.056;5.296;2022-09-09T13:29:07;7.43;;;2.83;;
68234;SDS011;55052;52.056;5.296;2022-09-09T13:31:44;7.90;;;2.90;;
68234;SDS011;55052;52.056;5.296;2022-09-09T13:34:30;7.10;;;2.72;;
68234;SDS011;55052;52.056;5.296;2022-09-09T13:36:59;5.70;;;2.38;;
68234;SDS011;55052;52.056;5.296;2022-09-09T13:39:34;7.55;;;2.67;;
68234;SDS011;55052;52.056;5.296;2022-09-09T13:42:03;9.30;;;3.15;;
68234;SDS011;55052;52.056;5.296;2022-09-09T13:44:31;8.15;;;2.90;;
68234;SDS011;55052;52.056;5.296;2022-09-09T13:47:19;8.05;;;2.70;;
68234;SDS011;55052;52.056;5.296;2022-09-09T13:49:49;11.07;;;2.80;;
68234;SDS011;55052;52.056;5.296;2022-09-09T13:52:16;6.32;;;2.30;;
68234;SDS011;55052;52.056;5.296;2022-09-09T13:54:48;10.85;;;2.80;;
68234;SDS011;55052;52.056;5.296;2022-09-09T13:57:20;8.82;;;3.30;;
68234;SDS011;55052;52.056;5.296;2022-09-09T13:59:51;9.40;;;2.72;;
68234;SDS011;55052;52.056;5.296;2022-09-09T14:02:36;7.93;;;2.90;;
68234;SDS011;55052;52.056;5.296;2022-09-09T14:05:04;10.48;;;2.70;;
68234;SDS011;55052;52.056;5.296;2022-09-09T14:07:31;8.98;;;3.28;;
68234;SDS011;55052;52.056;5.296;2022-09-09T14:09:58;9.30;;;2.65;;
68234;SDS011;55052;52.056;5.296;2022-09-09T14:12:26;6.30;;;2.72;;
68234;SDS011;55052;52.056;5.296;2022-09-09T14:14:53;7.25;;;2.63;;
68234;SDS011;55052;52.056;5.296;2022-09-09T14:17:19;7.28;;;2.80;;
68234;SDS011;55052;52.056;5.296;2022-09-09T14:19:48;9.10;;;2.95;;
68234;SDS011;55052;52.056;5.296;2022-09-09T14:22:14;10.98;;;3.30;;
68234;SDS011;55052;52.056;5.296;2022-09-09T14:24:41;8.75;;;3.00;;
68234;SDS011;55052;52.056;5.296;2022-09-09T14:27:08;8.52;;;3.40;;
68234;SDS011;55052;52.056;5.296;2022-09-09T14:29:35;16.27;;;3.00;;
68234;SDS011;55052;52.056;5.296;2022-09-09T14:32:02;8.60;;;3.08;;
68234;SDS011;55052;52.056;5.296;2022-09-09T14:34:28;8.43;;;2.90;;
68234;SDS011;55052;52.056;5.296;2022-09-09T14:36:56;5.78;;;3.05;;
68234;SDS011;55052;52.056;5.296;2022-09-09T14:39:23;9.60;;;3.63;;
68234;SDS011;55052;52.056;5.296;2022-09-09T14:41:49;9.88;;;3.30;;
68234;SDS011;55052;52.056;5.296;2022-09-09T14:44:16;8.27;;;3.33;;
68234;SDS011;55052;52.056;5.296;2022-09-09T14:46:43;8.85;;;3.55;;
68234;SDS011;55052;52.056;5.296;2022-09-09T14:49:09;6.75;;;3.45;;
68234;SDS011;55052;52.056;5.296;2022-09-09T14:51:36;9.10;;;3.03;;
68234;SDS011;55052;52.056;5.296;2022-09-09T14:54:03;7.95;;;2.83;;
68234;SDS011;55052;52.056;5.296;2022-09-09T14:56:31;4.65;;;2.17;;
68234;SDS011;55052;52.056;5.296;2022-09-09T14:59:02;4.45;;;1.90;;
68234;SDS011;55052;52.056;5.296;2022-09-09T15:01:29;2.13;;;1.48;;
68234;SDS011;55052;52.056;5.296;2022-09-09T15:03:58;3.05;;;1.30;;
68234;SDS011;55052;52.056;5.296;2022-09-09T15:06:27;4.97;;;1.58;;
68234;SDS011;55052;52.056;5.296;2022-09-09T15:08:56;5.00;;;1.60;;
68234;SDS011;55052;52.056;5.296;2022-09-09T15:11:26;6.97;;;1.60;;
68234;SDS011;55052;52.056;5.296;2022-09-09T15:13:56;2.88;;;1.48;;
68234;SDS011;55052;52.056;5.296;2022-09-09T15:16:25;5.38;;;1.70;;
68234;SDS011;55052;52.056;5.296;2022-09-09T15:18:54;6.88;;;1.90;;
68234;SDS011;55052;52.056;5.296;2022-09-09T15:21:23;4.20;;;1.67;;
68234;SDS011;55052;52.056;5.296;2022-09-09T15:23:52;4.23;;;1.70;;
68234;SDS011;55052;52.056;5.296;2022-09-09T15:26:19;6.60;;;1.92;;
68234;SDS011;55052;52.056;5.296;2022-09-09T15:28:47;4.45;;;1.70;;
68234;SDS011;55052;52.056;5.296;2022-09-09T15:31:17;4.93;;;1.80;;
68234;SDS011;55052;52.056;5.296;2022-09-09T15:33:55;7.75;;;1.90;;
68234;SDS011;55052;52.056;5.296;2022-09-09T15:36:30;3.20;;;1.65;;
68234;SDS011;55052;52.056;5.296;2022-09-09T15:39:06;3.42;;;1.70;;
68234;SDS011;55052;52.056;5.296;2022-09-09T15:41:35;5.25;;;1.73;;
68234;SDS011;55052;52.056;5.296;2022-09-09T15:44:02;4.28;;;2.08;;
68234;SDS011;55052;52.056;5.296;2022-09-09T15:46:30;5.68;;;1.80;;
68234;SDS011;55052;52.056;5.296;2022-09-09T15:49:06;4.53;;;1.83;;
68234;SDS011;55052;52.056;5.296;2022-09-09T15:51:40;4.55;;;2.00;;
68234;SDS011;55052;52.056;5.296;2022-09-09T15:54:19;6.32;;;1.85;;
68234;SDS011;55052;52.056;5.296;2022-09-09T15:56:52;4.88;;;1.85;;
68234;SDS011;55052;52.056;5.296;2022-09-09T15:59:24;5.03;;;1.75;;
68234;SDS011;55052;52.056;5.296;2022-09-09T16:01:52;4.07;;;1.60;;
68234;SDS011;55052;52.056;5.296;2022-09-09T16:04:20;4.82;;;1.92;;
68234;SDS011;55052;52.056;5.296;2022-09-09T16:06:51;4.60;;;1.65;;
68234;SDS011;55052;52.056;5.296;2022-09-09T16:09:20;5.75;;;2.30;;
68234;SDS011;55052;52.056;5.296;2022-09-09T16:11:47;4.63;;;2.00;;
68234;SDS011;55052;52.056;5.296;2022-09-09T16:14:14;5.68;;;1.92;;
68234;SDS011;55052;52.056;5.296;2022-09-09T16:16:42;9.38;;;2.65;;
68234;SDS011;55052;52.056;5.296;2022-09-09T16:19:10;6.70;;;2.42;;
68234;SDS011;55052;52.056;5.296;2022-09-09T16:21:42;4.80;;;2.05;;
68234;SDS011;55052;52.056;5.296;2022-09-09T16:24:12;7.63;;;2.33;;
68234;SDS011;55052;52.056;5.296;2022-09-09T16:26:45;5.07;;;1.98;;
68234;SDS011;55052;52.056;5.296;2022-09-09T16:29:14;5.37;;;2.03;;
68234;SDS011;55052;52.056;5.296;2022-09-09T16:31:41;4.75;;;1.88;;
68234;SDS011;55052;52.056;5.296;2022-09-09T16:34:09;4.80;;;2.08;;
68234;SDS011;55052;52.056;5.296;2022-09-09T16:36:36;6.15;;;2.17;;
68234;SDS011;55052;52.056;5.296;2022-09-09T16:39:06;4.97;;;1.77;;
68234;SDS011;55052;52.056;5.296;2022-09-09T16:41:38;4.88;;;2.20;;
68234;SDS011;55052;52.056;5.296;2022-09-09T16:44:06;6.15;;;2.10;;
68234;SDS011;55052;52.056;5.296;2022-09-09T16:46:36;7.00;;;2.42;;
68234;SDS011;55052;52.056;5.296;2022-09-09T16:49:06;8.40;;;3.03;;
68234;SDS011;55052;52.056;5.296;2022-09-09T16:51:35;5.30;;;2.53;;
68234;SDS011;55052;52.056;5.296;2022-09-09T16:54:07;8.57;;;2.70;;
68234;SDS011;55052;52.056;5.296;2022-09-09T16:56:36;8.13;;;2.40;;
68234;SDS011;55052;52.056;5.296;2022-09-09T16:59:08;5.75;;;2.50;;
68234;SDS011;55052;52.056;5.296;2022-09-09T17:01:40;5.30;;;2.60;;
68234;SDS011;55052;52.056;5.296;2022-09-09T17:04:13;8.38;;;3.58;;
68234;SDS011;55052;52.056;5.296;2022-09-09T17:06:45;8.98;;;2.95;;
68234;SDS011;55052;52.056;5.296;2022-09-09T17:09:13;7.50;;;3.25;;
68234;SDS011;55052;52.056;5.296;2022-09-09T17:11:39;9.35;;;3.00;;
68234;SDS011;55052;52.056;5.296;2022-09-09T17:14:08;6.82;;;2.95;;
68234;SDS011;55052;52.056;5.296;2022-09-09T17:16:37;6.93;;;2.50;;
68234;SDS011;55052;52.056;5.296;2022-09-09T17:19:06;10.38;;;3.25;;
68234;SDS011;55052;52.056;5.296;2022-09-09T17:21:35;10.60;;;3.03;;
68234;SDS011;55052;52.056;5.296;2022-09-09T17:24:22;6.53;;;2.90;;
68234;SDS011;55052;52.056;5.296;2022-09-09T17:26:51;7.82;;;2.75;;
68234;SDS011;55052;52.056;5.296;2022-09-09T17:29:18;7.53;;;3.15;;
68234;SDS011;55052;52.056;5.296;2022-09-09T17:31:45;6.30;;;2.85;;
68234;SDS011;55052;52.056;5.296;2022-09-09T17:34:12;6.32;;;2.38;;
68234;SDS011;55052;52.056;5.296;2022-09-09T17:36:39;5.30;;;2.72;;
68234;SDS011;55052;52.056;5.296;2022-09-09T17:39:05;8.45;;;2.58;;
68234;SDS011;55052;52.056;5.296;2022-09-09T17:41:33;8.15;;;2.40;;
68234;SDS011;55052;52.056;5.296;2022-09-09T17:44:02;6.33;;;2.70;;
68234;SDS011;55052;52.056;5.296;2022-09-09T17:46:33;4.35;;;2.22;;
68234;SDS011;55052;52.056;5.296;2022-09-09T17:49:03;6.72;;;2.60;;